Airport View

Enter AWOS ICAO identifier for current METAR.

ex. KFNL

KARG 212256Z AUTO 20011KT 10SM BKN060 30/18 A3008 RMK AO2 SLP184 T03000183

21 Sep 2019 23:25

Frequency: 135.925

Phone: 870-886-2537

Other Area AWOS: K4M9 - KJBR - KM19 - KBVX

KJBR 211722Z 2118/2218 19012G18KT P6SM SCT050 BKN150 FM220100 18007KT P6SM FEW050 SCT250 FM221500 19016G23KT P6SM SCT050 BKN250